sensor_id;sensor_type;location;lat;lon;timestamp;pressure;altitude;pressure_sealevel;temperature;humidity
16355;BME280;8287;51.644;8.494;2024-02-23T00:00:12;97426.50;;;10.36;70.61
16355;BME280;8287;51.644;8.494;2024-02-23T00:02:40;97424.22;;;10.35;71.59
16355;BME280;8287;51.644;8.494;2024-02-23T00:05:07;97426.47;;;10.26;71.44
16355;BME280;8287;51.644;8.494;2024-02-23T00:07:34;97446.06;;;10.18;71.49
16355;BME280;8287;51.644;8.494;2024-02-23T00:10:00;97446.91;;;10.29;71.66
16355;BME280;8287;51.644;8.494;2024-02-23T00:12:27;97449.53;;;10.29;71.45
16355;BME280;8287;51.644;8.494;2024-02-23T00:14:54;97451.03;;;10.23;72.45
16355;BME280;8287;51.644;8.494;2024-02-23T00:17:21;97480.84;;;10.13;72.05
16355;BME280;8287;51.644;8.494;2024-02-23T00:19:49;97496.59;;;9.99;73.36
16355;BME280;8287;51.644;8.494;2024-02-23T00:22:18;97498.84;;;9.97;73.13
16355;BME280;8287;51.644;8.494;2024-02-23T00:24:44;97495.00;;;9.91;73.70
16355;BME280;8287;51.644;8.494;2024-02-23T00:27:11;97515.75;;;9.85;72.61
16355;BME280;8287;51.644;8.494;2024-02-23T00:29:37;97524.06;;;9.84;73.48
16355;BME280;8287;51.644;8.494;2024-02-23T00:32:04;97535.03;;;9.86;74.55
16355;BME280;8287;51.644;8.494;2024-02-23T00:34:32;97541.91;;;9.94;75.58
16355;BME280;8287;51.644;8.494;2024-02-23T00:37:00;97561.84;;;9.84;74.87
16355;BME280;8287;51.644;8.494;2024-02-23T00:39:27;97565.78;;;9.58;74.87
16355;BME280;8287;51.644;8.494;2024-02-23T00:41:53;97570.94;;;9.47;75.91
16355;BME280;8287;51.644;8.494;2024-02-23T00:44:20;97578.53;;;9.49;76.56
16355;BME280;8287;51.644;8.494;2024-02-23T00:46:47;97570.09;;;9.36;77.24
16355;BME280;8287;51.644;8.494;2024-02-23T00:49:13;97593.44;;;9.34;77.76
16355;BME280;8287;51.644;8.494;2024-02-23T00:51:40;97585.91;;;9.33;77.92
16355;BME280;8287;51.644;8.494;2024-02-23T00:54:08;97596.59;;;9.43;78.38
16355;BME280;8287;51.644;8.494;2024-02-23T00:56:34;97615.06;;;9.40;76.96
16355;BME280;8287;51.644;8.494;2024-02-23T00:59:01;97645.47;;;9.27;77.29
16355;BME280;8287;51.644;8.494;2024-02-23T01:01:28;97650.56;;;9.13;77.94
16355;BME280;8287;51.644;8.494;2024-02-23T01:03:54;97691.31;;;9.12;77.57
16355;BME280;8287;51.644;8.494;2024-02-23T01:06:21;97676.38;;;8.93;78.56
16355;BME280;8287;51.644;8.494;2024-02-23T01:08:47;97674.03;;;8.88;79.09
16355;BME280;8287;51.644;8.494;2024-02-23T01:11:15;97703.53;;;8.68;80.70
16355;BME280;8287;51.644;8.494;2024-02-23T01:13:42;97698.91;;;8.61;82.67
16355;BME280;8287;51.644;8.494;2024-02-23T01:16:08;97693.41;;;8.47;83.97
16355;BME280;8287;51.644;8.494;2024-02-23T01:18:35;97713.66;;;8.40;85.12
16355;BME280;8287;51.644;8.494;2024-02-23T01:21:01;97707.25;;;8.41;84.15
16355;BME280;8287;51.644;8.494;2024-02-23T01:23:28;97723.31;;;8.32;84.48
16355;BME280;8287;51.644;8.494;2024-02-23T01:25:55;97726.72;;;8.33;84.19
16355;BME280;8287;51.644;8.494;2024-02-23T01:28:22;97747.09;;;8.36;84.64
16355;BME280;8287;51.644;8.494;2024-02-23T01:30:49;97750.47;;;8.33;85.37
16355;BME280;8287;51.644;8.494;2024-02-23T01:33:16;97754.56;;;8.30;84.97
16355;BME280;8287;51.644;8.494;2024-02-23T01:35:42;97746.44;;;8.20;85.47
16355;BME280;8287;51.644;8.494;2024-02-23T01:38:09;97759.44;;;8.28;85.38
16355;BME280;8287;51.644;8.494;2024-02-23T01:40:35;97772.22;;;8.26;85.09
16355;BME280;8287;51.644;8.494;2024-02-23T01:43:03;97766.56;;;8.28;84.58
16355;BME280;8287;51.644;8.494;2024-02-23T01:45:31;97776.38;;;8.27;85.27
16355;BME280;8287;51.644;8.494;2024-02-23T01:47:58;97782.66;;;8.42;85.07
16355;BME280;8287;51.644;8.494;2024-02-23T01:50:25;97790.44;;;8.35;87.02
16355;BME280;8287;51.644;8.494;2024-02-23T01:52:53;97788.72;;;8.23;89.34
16355;BME280;8287;51.644;8.494;2024-02-23T01:55:20;97781.34;;;8.13;90.81
16355;BME280;8287;51.644;8.494;2024-02-23T01:57:48;97786.88;;;8.05;91.69
16355;BME280;8287;51.644;8.494;2024-02-23T02:00:16;97793.53;;;7.99;91.87
16355;BME280;8287;51.644;8.494;2024-02-23T02:02:45;97789.22;;;7.91;91.68
16355;BME280;8287;51.644;8.494;2024-02-23T02:05:13;97783.72;;;7.99;92.19
16355;BME280;8287;51.644;8.494;2024-02-23T02:07:40;97787.28;;;8.07;91.57
16355;BME280;8287;51.644;8.494;2024-02-23T02:10:08;97799.34;;;8.08;91.20
16355;BME280;8287;51.644;8.494;2024-02-23T02:12:35;97804.94;;;8.06;91.01
16355;BME280;8287;51.644;8.494;2024-02-23T02:15:02;97806.19;;;8.12;91.24
16355;BME280;8287;51.644;8.494;2024-02-23T02:17:29;97799.75;;;8.10;91.28
16355;BME280;8287;51.644;8.494;2024-02-23T02:19:58;97820.84;;;8.10;90.88
16355;BME280;8287;51.644;8.494;2024-02-23T02:22:24;97813.78;;;8.14;91.02
16355;BME280;8287;51.644;8.494;2024-02-23T02:24:51;97817.03;;;8.07;90.30
16355;BME280;8287;51.644;8.494;2024-02-23T02:27:17;97844.16;;;8.08;88.11
16355;BME280;8287;51.644;8.494;2024-02-23T02:29:44;97830.56;;;8.06;88.06
16355;BME280;8287;51.644;8.494;2024-02-23T02:32:10;97851.09;;;8.16;86.59
16355;BME280;8287;51.644;8.494;2024-02-23T02:34:37;97843.25;;;8.00;85.41
16355;BME280;8287;51.644;8.494;2024-02-23T02:37:05;97853.19;;;8.07;83.05
16355;BME280;8287;51.644;8.494;2024-02-23T02:39:31;97860.31;;;8.06;82.95
16355;BME280;8287;51.644;8.494;2024-02-23T02:41:58;97859.22;;;8.07;82.83
16355;BME280;8287;51.644;8.494;2024-02-23T02:44:24;97853.59;;;8.09;82.54
16355;BME280;8287;51.644;8.494;2024-02-23T02:46:51;97856.56;;;8.23;82.40
16355;BME280;8287;51.644;8.494;2024-02-23T02:49:18;97859.44;;;8.18;82.56
16355;BME280;8287;51.644;8.494;2024-02-23T02:51:45;97866.31;;;8.22;82.05
16355;BME280;8287;51.644;8.494;2024-02-23T02:54:13;97873.19;;;8.27;80.16
16355;BME280;8287;51.644;8.494;2024-02-23T02:56:42;97881.59;;;8.32;80.81
16355;BME280;8287;51.644;8.494;2024-02-23T02:59:08;97877.84;;;8.33;80.03
16355;BME280;8287;51.644;8.494;2024-02-23T03:01:35;97871.50;;;8.38;80.17
16355;BME280;8287;51.644;8.494;2024-02-23T03:04:01;97879.81;;;8.36;79.91
16355;BME280;8287;51.644;8.494;2024-02-23T03:06:28;97887.00;;;8.39;79.27
16355;BME280;8287;51.644;8.494;2024-02-23T03:08:54;97886.53;;;8.34;78.98
16355;BME280;8287;51.644;8.494;2024-02-23T03:11:22;97894.66;;;8.44;79.25
16355;BME280;8287;51.644;8.494;2024-02-23T03:13:49;97889.25;;;8.37;78.69
16355;BME280;8287;51.644;8.494;2024-02-23T03:16:16;97896.84;;;8.42;79.29
16355;BME280;8287;51.644;8.494;2024-02-23T03:18:43;97896.59;;;8.47;79.06
16355;BME280;8287;51.644;8.494;2024-02-23T03:21:09;97886.31;;;8.42;79.10
16355;BME280;8287;51.644;8.494;2024-02-23T03:23:36;97895.31;;;8.41;78.52
16355;BME280;8287;51.644;8.494;2024-02-23T03:26:03;97885.88;;;8.40;77.79
16355;BME280;8287;51.644;8.494;2024-02-23T03:28:31;97888.59;;;8.44;78.04
16355;BME280;8287;51.644;8.494;2024-02-23T03:30:58;97895.50;;;8.29;77.95
16355;BME280;8287;51.644;8.494;2024-02-23T03:33:24;97901.16;;;8.31;78.47
16355;BME280;8287;51.644;8.494;2024-02-23T03:35:51;97899.94;;;8.44;77.28
16355;BME280;8287;51.644;8.494;2024-02-23T03:38:17;97893.06;;;8.40;77.53
16355;BME280;8287;51.644;8.494;2024-02-23T03:40:44;97899.50;;;8.42;77.44
16355;BME280;8287;51.644;8.494;2024-02-23T03:43:10;97909.72;;;8.44;77.93
16355;BME280;8287;51.644;8.494;2024-02-23T03:45:38;97896.91;;;8.46;78.57
16355;BME280;8287;51.644;8.494;2024-02-23T03:48:05;97910.75;;;8.39;78.39
16355;BME280;8287;51.644;8.494;2024-02-23T03:50:32;97915.06;;;8.47;77.55
16355;BME280;8287;51.644;8.494;2024-02-23T03:52:58;97910.13;;;8.46;77.96
16355;BME280;8287;51.644;8.494;2024-02-23T03:55:25;97924.66;;;8.36;77.62
16355;BME280;8287;51.644;8.494;2024-02-23T03:57:51;97933.78;;;8.42;76.08
16355;BME280;8287;51.644;8.494;2024-02-23T04:00:18;97925.00;;;8.35;75.99
16355;BME280;8287;51.644;8.494;2024-02-23T04:02:47;97935.75;;;8.45;75.60
16355;BME280;8287;51.644;8.494;2024-02-23T04:05:14;97941.94;;;8.34;75.45
16355;BME280;8287;51.644;8.494;2024-02-23T04:07:40;97956.50;;;8.28;76.76
16355;BME280;8287;51.644;8.494;2024-02-23T04:10:07;97955.25;;;8.22;76.42
16355;BME280;8287;51.644;8.494;2024-02-23T04:12:34;97955.31;;;8.25;76.65
16355;BME280;8287;51.644;8.494;2024-02-23T04:15:01;97958.22;;;8.20;76.88
16355;BME280;8287;51.644;8.494;2024-02-23T04:17:27;97962.63;;;8.16;77.74
16355;BME280;8287;51.644;8.494;2024-02-23T04:19:55;97961.88;;;8.16;76.51
16355;BME280;8287;51.644;8.494;2024-02-23T04:22:22;97966.38;;;8.31;76.25
16355;BME280;8287;51.644;8.494;2024-02-23T04:24:48;97949.53;;;8.20;76.50
16355;BME280;8287;51.644;8.494;2024-02-23T04:27:14;97977.63;;;8.12;75.08
16355;BME280;8287;51.644;8.494;2024-02-23T04:29:40;97963.09;;;8.03;77.07
16355;BME280;8287;51.644;8.494;2024-02-23T04:32:07;97967.91;;;8.16;77.71
16355;BME280;8287;51.644;8.494;2024-02-23T04:34:34;97975.75;;;8.13;77.98
16355;BME280;8287;51.644;8.494;2024-02-23T04:37:03;97965.72;;;8.18;77.39
16355;BME280;8287;51.644;8.494;2024-02-23T04:39:29;97975.06;;;8.16;77.88
16355;BME280;8287;51.644;8.494;2024-02-23T04:41:56;97964.03;;;8.10;77.99
16355;BME280;8287;51.644;8.494;2024-02-23T04:44:23;97978.31;;;8.09;78.42
16355;BME280;8287;51.644;8.494;2024-02-23T04:46:49;97988.19;;;8.12;78.15
16355;BME280;8287;51.644;8.494;2024-02-23T04:49:15;97991.84;;;8.08;78.22
16355;BME280;8287;51.644;8.494;2024-02-23T04:51:42;97985.47;;;8.09;78.34
16355;BME280;8287;51.644;8.494;2024-02-23T04:54:10;98001.09;;;8.17;78.57
16355;BME280;8287;51.644;8.494;2024-02-23T04:56:37;98005.09;;;8.11;79.12
16355;BME280;8287;51.644;8.494;2024-02-23T04:59:04;98012.94;;;8.08;79.38
16355;BME280;8287;51.644;8.494;2024-02-23T05:01:35;98012.50;;;8.21;78.34
16355;BME280;8287;51.644;8.494;2024-02-23T05:04:01;98004.34;;;8.26;78.79
16355;BME280;8287;51.644;8.494;2024-02-23T05:06:28;98002.56;;;8.15;78.48
16355;BME280;8287;51.644;8.494;2024-02-23T05:08:55;98011.97;;;8.31;78.25
16355;BME280;8287;51.644;8.494;2024-02-23T05:11:22;98015.31;;;8.28;78.88
16355;BME280;8287;51.644;8.494;2024-02-23T05:13:49;98017.94;;;8.28;78.96
16355;BME280;8287;51.644;8.494;2024-02-23T05:16:16;98015.56;;;8.23;77.96
16355;BME280;8287;51.644;8.494;2024-02-23T05:18:42;98022.78;;;8.11;78.10
16355;BME280;8287;51.644;8.494;2024-02-23T05:21:11;98022.22;;;8.17;77.71
16355;BME280;8287;51.644;8.494;2024-02-23T05:23:38;98025.00;;;8.24;78.12
16355;BME280;8287;51.644;8.494;2024-02-23T05:26:05;98023.72;;;8.18;77.88
16355;BME280;8287;51.644;8.494;2024-02-23T05:28:33;98022.47;;;8.12;77.95
16355;BME280;8287;51.644;8.494;2024-02-23T05:31:01;98016.50;;;8.15;77.53
16355;BME280;8287;51.644;8.494;2024-02-23T05:33:29;98013.34;;;8.10;77.78
16355;BME280;8287;51.644;8.494;2024-02-23T05:35:55;98017.38;;;8.19;77.77
16355;BME280;8287;51.644;8.494;2024-02-23T05:38:22;98012.59;;;8.09;77.82
16355;BME280;8287;51.644;8.494;2024-02-23T05:40:48;98021.09;;;8.03;77.12
16355;BME280;8287;51.644;8.494;2024-02-23T05:43:15;98026.38;;;8.03;77.50
16355;BME280;8287;51.644;8.494;2024-02-23T05:45:42;98034.47;;;8.10;78.21
16355;BME280;8287;51.644;8.494;2024-02-23T05:48:10;98041.34;;;8.14;77.26
16355;BME280;8287;51.644;8.494;2024-02-23T05:50:37;98032.59;;;8.10;77.86
16355;BME280;8287;51.644;8.494;2024-02-23T05:53:04;98047.63;;;8.10;77.29
16355;BME280;8287;51.644;8.494;2024-02-23T05:55:31;98042.38;;;8.10;77.72
16355;BME280;8287;51.644;8.494;2024-02-23T05:57:57;98049.09;;;8.07;77.50
16355;BME280;8287;51.644;8.494;2024-02-23T06:00:23;98043.91;;;7.95;77.05
16355;BME280;8287;51.644;8.494;2024-02-23T06:02:51;98053.28;;;7.93;78.06
16355;BME280;8287;51.644;8.494;2024-02-23T06:05:18;98038.81;;;7.87;78.44
16355;BME280;8287;51.644;8.494;2024-02-23T06:07:44;98054.88;;;7.97;77.63
16355;BME280;8287;51.644;8.494;2024-02-23T06:10:11;98036.44;;;7.82;78.14
16355;BME280;8287;51.644;8.494;2024-02-23T06:12:37;98043.66;;;7.85;78.05
16355;BME280;8287;51.644;8.494;2024-02-23T06:15:05;98045.78;;;7.95;77.70
16355;BME280;8287;51.644;8.494;2024-02-23T06:17:32;98046.97;;;7.97;77.03
16355;BME280;8287;51.644;8.494;2024-02-23T06:20:00;98043.91;;;7.95;77.75
16355;BME280;8287;51.644;8.494;2024-02-23T06:22:26;98040.41;;;7.91;77.56
16355;BME280;8287;51.644;8.494;2024-02-23T06:24:53;98043.66;;;7.85;77.97
16355;BME280;8287;51.644;8.494;2024-02-23T06:27:20;98044.00;;;7.83;78.15
16355;BME280;8287;51.644;8.494;2024-02-23T06:29:47;98061.28;;;7.81;77.69
16355;BME280;8287;51.644;8.494;2024-02-23T06:32:14;98062.13;;;7.85;78.46
16355;BME280;8287;51.644;8.494;2024-02-23T06:34:41;98065.34;;;7.94;77.49
16355;BME280;8287;51.644;8.494;2024-02-23T06:37:09;98062.13;;;7.85;77.66
16355;BME280;8287;51.644;8.494;2024-02-23T06:39:35;98066.72;;;7.88;78.38
16355;BME280;8287;51.644;8.494;2024-02-23T06:42:02;98061.50;;;7.91;78.33
16355;BME280;8287;51.644;8.494;2024-02-23T06:44:29;98065.00;;;7.95;78.23
16355;BME280;8287;51.644;8.494;2024-02-23T06:46:56;98061.69;;;7.98;77.72
16355;BME280;8287;51.644;8.494;2024-02-23T06:49:23;98060.66;;;8.03;76.66
16355;BME280;8287;51.644;8.494;2024-02-23T06:51:49;98062.38;;;7.95;76.37
16355;BME280;8287;51.644;8.494;2024-02-23T06:54:17;98060.06;;;7.94;76.63
16355;BME280;8287;51.644;8.494;2024-02-23T06:56:43;98062.78;;;7.97;76.60
16355;BME280;8287;51.644;8.494;2024-02-23T06:59:10;98052.25;;;7.97;77.13
16355;BME280;8287;51.644;8.494;2024-02-23T07:01:47;98052.69;;;7.84;77.01
16355;BME280;8287;51.644;8.494;2024-02-23T07:04:14;98058.81;;;7.88;77.06
16355;BME280;8287;51.644;8.494;2024-02-23T07:06:40;98052.44;;;7.89;77.59
16355;BME280;8287;51.644;8.494;2024-02-23T07:09:07;98058.19;;;7.79;77.42
16355;BME280;8287;51.644;8.494;2024-02-23T07:11:35;98051.84;;;7.80;77.89
16355;BME280;8287;51.644;8.494;2024-02-23T07:14:02;98050.38;;;7.82;78.36
16355;BME280;8287;51.644;8.494;2024-02-23T07:16:28;98053.47;;;7.84;78.08
16355;BME280;8287;51.644;8.494;2024-02-23T07:18:55;98057.78;;;7.92;77.80
16355;BME280;8287;51.644;8.494;2024-02-23T07:21:22;98056.34;;;7.79;78.27
16355;BME280;8287;51.644;8.494;2024-02-23T07:23:48;98052.59;;;7.80;78.23
16355;BME280;8287;51.644;8.494;2024-02-23T07:26:15;98056.69;;;7.93;77.76
16355;BME280;8287;51.644;8.494;2024-02-23T07:28:43;98056.78;;;7.97;77.61
16355;BME280;8287;51.644;8.494;2024-02-23T07:31:10;98062.47;;;7.99;77.65
16355;BME280;8287;51.644;8.494;2024-02-23T07:33:37;98064.41;;;8.02;77.52
16355;BME280;8287;51.644;8.494;2024-02-23T07:36:04;98069.50;;;7.95;77.41
16355;BME280;8287;51.644;8.494;2024-02-23T07:38:31;98081.50;;;8.08;76.83
16355;BME280;8287;51.644;8.494;2024-02-23T07:40:57;98073.25;;;8.09;77.33
16355;BME280;8287;51.644;8.494;2024-02-23T07:43:24;98071.28;;;8.06;77.63
16355;BME280;8287;51.644;8.494;2024-02-23T07:45:52;98081.44;;;8.20;77.38
16355;BME280;8287;51.644;8.494;2024-02-23T07:48:19;98097.91;;;8.32;77.01
16355;BME280;8287;51.644;8.494;2024-02-23T07:50:46;98089.84;;;8.41;75.81
16355;BME280;8287;51.644;8.494;2024-02-23T07:53:12;98094.63;;;8.35;76.35
16355;BME280;8287;51.644;8.494;2024-02-23T07:55:39;98104.16;;;8.24;76.41
16355;BME280;8287;51.644;8.494;2024-02-23T07:58:05;98119.31;;;8.27;76.66
16355;BME280;8287;51.644;8.494;2024-02-23T08:00:32;98136.16;;;8.23;76.71
16355;BME280;8287;51.644;8.494;2024-02-23T08:03:01;98135.69;;;8.05;77.17
16355;BME280;8287;51.644;8.494;2024-02-23T08:05:28;98132.75;;;8.22;77.21
16355;BME280;8287;51.644;8.494;2024-02-23T08:07:54;98137.81;;;8.15;76.48
16355;BME280;8287;51.644;8.494;2024-02-23T08:10:21;98145.31;;;8.29;77.02
16355;BME280;8287;51.644;8.494;2024-02-23T08:12:47;98148.13;;;8.51;75.70
16355;BME280;8287;51.644;8.494;2024-02-23T08:15:14;98159.44;;;8.52;76.35
16355;BME280;8287;51.644;8.494;2024-02-23T08:17:40;98160.63;;;8.54;76.08
16355;BME280;8287;51.644;8.494;2024-02-23T08:20:09;98164.13;;;8.43;75.69
16355;BME280;8287;51.644;8.494;2024-02-23T08:22:36;98168.56;;;8.54;76.19
16355;BME280;8287;51.644;8.494;2024-02-23T08:25:03;98176.81;;;8.68;75.25
16355;BME280;8287;51.644;8.494;2024-02-23T08:27:30;98181.22;;;8.64;74.50
16355;BME280;8287;51.644;8.494;2024-02-23T08:29:56;98180.22;;;8.88;74.83
16355;BME280;8287;51.644;8.494;2024-02-23T08:32:23;98172.16;;;9.15;74.49
16355;BME280;8287;51.644;8.494;2024-02-23T08:34:49;98185.66;;;9.29;74.25
16355;BME280;8287;51.644;8.494;2024-02-23T08:37:19;98163.13;;;9.54;71.91
16355;BME280;8287;51.644;8.494;2024-02-23T08:39:46;98173.41;;;9.78;71.68
16355;BME280;8287;51.644;8.494;2024-02-23T08:42:12;98174.75;;;10.10;71.66
16355;BME280;8287;51.644;8.494;2024-02-23T08:44:39;98165.78;;;10.18;70.22
16355;BME280;8287;51.644;8.494;2024-02-23T08:47:06;98180.66;;;10.03;69.51
16355;BME280;8287;51.644;8.494;2024-02-23T08:49:32;98171.44;;;10.39;70.39
16355;BME280;8287;51.644;8.494;2024-02-23T08:51:59;98169.31;;;10.48;69.56
16355;BME280;8287;51.644;8.494;2024-02-23T08:54:27;98179.47;;;10.68;70.16
16355;BME280;8287;51.644;8.494;2024-02-23T08:56:53;98190.00;;;10.65;67.91
16355;BME280;8287;51.644;8.494;2024-02-23T08:59:20;98192.44;;;10.77;67.00
16355;BME280;8287;51.644;8.494;2024-02-23T09:01:46;98199.53;;;10.69;67.18
16355;BME280;8287;51.644;8.494;2024-02-23T09:04:13;98180.69;;;10.74;67.11
16355;BME280;8287;51.644;8.494;2024-02-23T09:06:40;98184.34;;;10.66;66.58
16355;BME280;8287;51.644;8.494;2024-02-23T09:09:06;98176.53;;;10.51;66.72
16355;BME280;8287;51.644;8.494;2024-02-23T09:11:35;98175.47;;;10.55;67.96
16355;BME280;8287;51.644;8.494;2024-02-23T09:14:02;98177.03;;;10.56;66.94
16355;BME280;8287;51.644;8.494;2024-02-23T09:16:29;98174.06;;;10.61;66.98
16355;BME280;8287;51.644;8.494;2024-02-23T09:18:55;98180.88;;;10.62;67.23
16355;BME280;8287;51.644;8.494;2024-02-23T09:21:22;98178.22;;;10.62;67.04
16355;BME280;8287;51.644;8.494;2024-02-23T09:23:49;98175.84;;;10.54;66.46
16355;BME280;8287;51.644;8.494;2024-02-23T09:26:16;98168.66;;;10.54;66.38
16355;BME280;8287;51.644;8.494;2024-02-23T09:28:44;98174.13;;;10.65;66.95
16355;BME280;8287;51.644;8.494;2024-02-23T09:31:11;98166.50;;;10.63;66.16
16355;BME280;8287;51.644;8.494;2024-02-23T09:33:37;98167.34;;;10.67;65.65
16355;BME280;8287;51.644;8.494;2024-02-23T09:36:05;98172.41;;;10.53;64.33
16355;BME280;8287;51.644;8.494;2024-02-23T09:38:31;98156.13;;;10.51;63.57
16355;BME280;8287;51.644;8.494;2024-02-23T09:40:58;98164.63;;;10.64;64.16
16355;BME280;8287;51.644;8.494;2024-02-23T09:43:29;98162.44;;;10.69;63.07
16355;BME280;8287;51.644;8.494;2024-02-23T09:45:57;98164.53;;;10.83;64.79
16355;BME280;8287;51.644;8.494;2024-02-23T09:48:24;98164.72;;;10.97;62.91
16355;BME280;8287;51.644;8.494;2024-02-23T09:50:52;98164.41;;;11.02;62.57
16355;BME280;8287;51.644;8.494;2024-02-23T09:53:19;98176.13;;;11.01;61.51
16355;BME280;8287;51.644;8.494;2024-02-23T09:55:47;98184.50;;;11.03;62.93
16355;BME280;8287;51.644;8.494;2024-02-23T09:58:16;98185.91;;;11.23;61.40
16355;BME280;8287;51.644;8.494;2024-02-23T10:00:43;98178.19;;;11.40;61.40
16355;BME280;8287;51.644;8.494;2024-02-23T10:03:11;98172.28;;;11.54;62.27
16355;BME280;8287;51.644;8.494;2024-02-23T10:05:36;98174.63;;;11.59;60.54
16355;BME280;8287;51.644;8.494;2024-02-23T10:08:04;98180.19;;;11.83;61.74
16355;BME280;8287;51.644;8.494;2024-02-23T10:12:59;98186.63;;;11.49;60.94
16355;BME280;8287;51.644;8.494;2024-02-23T10:15:28;98184.56;;;11.69;59.08
16355;BME280;8287;51.644;8.494;2024-02-23T10:17:55;98201.22;;;11.66;60.93
16355;BME280;8287;51.644;8.494;2024-02-23T10:20:23;98200.56;;;11.46;60.81
16355;BME280;8287;51.644;8.494;2024-02-23T10:22:49;98199.19;;;11.56;60.77
16355;BME280;8287;51.644;8.494;2024-02-23T10:25:18;98199.34;;;11.37;59.89
16355;BME280;8287;51.644;8.494;2024-02-23T10:27:45;98200.88;;;11.38;60.72
16355;BME280;8287;51.644;8.494;2024-02-23T10:30:13;98191.81;;;11.42;61.44
16355;BME280;8287;51.644;8.494;2024-02-23T10:32:40;98207.78;;;11.46;60.45
16355;BME280;8287;51.644;8.494;2024-02-23T10:35:10;98213.59;;;11.25;61.35
16355;BME280;8287;51.644;8.494;2024-02-23T10:37:38;98213.53;;;11.51;61.01
16355;BME280;8287;51.644;8.494;2024-02-23T10:40:06;98195.13;;;11.62;59.26
16355;BME280;8287;51.644;8.494;2024-02-23T10:42:36;98200.91;;;11.71;61.71
16355;BME280;8287;51.644;8.494;2024-02-23T10:45:05;98202.16;;;11.84;61.21
16355;BME280;8287;51.644;8.494;2024-02-23T10:47:34;98188.00;;;12.06;59.42
16355;BME280;8287;51.644;8.494;2024-02-23T10:50:02;98192.88;;;12.00;57.96
16355;BME280;8287;51.644;8.494;2024-02-23T10:52:30;98178.13;;;12.06;59.58
16355;BME280;8287;51.644;8.494;2024-02-23T10:55:00;98175.69;;;12.27;59.21
16355;BME280;8287;51.644;8.494;2024-02-23T10:57:30;98177.69;;;12.41;57.16
16355;BME280;8287;51.644;8.494;2024-02-23T10:59:57;98168.72;;;12.59;58.90
16355;BME280;8287;51.644;8.494;2024-02-23T11:02:24;98161.56;;;12.67;57.71
16355;BME280;8287;51.644;8.494;2024-02-23T11:04:54;98163.50;;;12.73;57.39
16355;BME280;8287;51.644;8.494;2024-02-23T11:07:22;98180.63;;;12.79;56.55
16355;BME280;8287;51.644;8.494;2024-02-23T11:09:51;98170.34;;;12.78;57.01
16355;BME280;8287;51.644;8.494;2024-02-23T11:12:28;98160.13;;;12.76;56.18
16355;BME280;8287;51.644;8.494;2024-02-23T11:14:59;98168.75;;;12.63;55.33
16355;BME280;8287;51.644;8.494;2024-02-23T11:17:29;98161.06;;;12.51;55.84
16355;BME280;8287;51.644;8.494;2024-02-23T11:19:56;98172.56;;;12.69;54.77
16355;BME280;8287;51.644;8.494;2024-02-23T11:22:24;98161.66;;;12.81;54.20
16355;BME280;8287;51.644;8.494;2024-02-23T11:24:51;98166.72;;;13.00;54.76
16355;BME280;8287;51.644;8.494;2024-02-23T11:27:17;98186.00;;;12.90;54.14
16355;BME280;8287;51.644;8.494;2024-02-23T11:29:46;98169.66;;;12.84;54.74
16355;BME280;8287;51.644;8.494;2024-02-23T11:32:14;98166.59;;;12.79;54.90
16355;BME280;8287;51.644;8.494;2024-02-23T11:34:41;98171.19;;;12.89;55.25
16355;BME280;8287;51.644;8.494;2024-02-23T11:37:09;98174.16;;;12.77;55.42
16355;BME280;8287;51.644;8.494;2024-02-23T11:39:37;98169.88;;;12.62;55.12
16355;BME280;8287;51.644;8.494;2024-02-23T11:42:04;98167.88;;;12.48;57.20
16355;BME280;8287;51.644;8.494;2024-02-23T11:44:32;98186.09;;;12.50;55.22
16355;BME280;8287;51.644;8.494;2024-02-23T11:46:59;98171.28;;;12.45;56.50
16355;BME280;8287;51.644;8.494;2024-02-23T11:49:29;98162.69;;;12.66;56.91
16355;BME280;8287;51.644;8.494;2024-02-23T11:51:57;98169.25;;;12.79;55.45
16355;BME280;8287;51.644;8.494;2024-02-23T11:54:23;98166.59;;;12.86;53.53
16355;BME280;8287;51.644;8.494;2024-02-23T11:56:50;98171.19;;;12.89;55.29
16355;BME280;8287;51.644;8.494;2024-02-23T11:59:18;98166.47;;;12.61;56.31
16355;BME280;8287;51.644;8.494;2024-02-23T12:01:45;98173.75;;;12.71;54.53
16355;BME280;8287;51.644;8.494;2024-02-23T12:04:14;98169.63;;;12.81;55.57
16355;BME280;8287;51.644;8.494;2024-02-23T12:06:41;98165.22;;;13.02;54.60
16355;BME280;8287;51.644;8.494;2024-02-23T12:09:08;98171.72;;;13.05;55.05
16355;BME280;8287;51.644;8.494;2024-02-23T12:11:36;98177.03;;;13.12;55.29
16355;BME280;8287;51.644;8.494;2024-02-23T12:14:03;98159.91;;;12.99;55.49
16355;BME280;8287;51.644;8.494;2024-02-23T12:16:33;98160.78;;;13.23;55.75
16355;BME280;8287;51.644;8.494;2024-02-23T12:19:01;98167.25;;;13.23;54.17
16355;BME280;8287;51.644;8.494;2024-02-23T12:21:29;98167.34;;;13.54;54.16
16355;BME280;8287;51.644;8.494;2024-02-23T12:23:55;98155.19;;;13.53;53.09
16355;BME280;8287;51.644;8.494;2024-02-23T12:26:22;98157.94;;;13.88;53.82
16355;BME280;8287;51.644;8.494;2024-02-23T12:28:49;98164.03;;;13.95;53.07
16355;BME280;8287;51.644;8.494;2024-02-23T12:31:15;98162.50;;;13.91;52.00
16355;BME280;8287;51.644;8.494;2024-02-23T12:33:42;98156.09;;;14.16;50.44
16355;BME280;8287;51.644;8.494;2024-02-23T12:36:13;98165.63;;;14.28;49.50
16355;BME280;8287;51.644;8.494;2024-02-23T12:38:41;98166.78;;;14.34;50.57
16355;BME280;8287;51.644;8.494;2024-02-23T12:41:07;98165.63;;;14.17;50.02
16355;BME280;8287;51.644;8.494;2024-02-23T12:43:33;98161.38;;;13.95;50.64
16355;BME280;8287;51.644;8.494;2024-02-23T12:45:59;98166.00;;;14.19;51.60
16355;BME280;8287;51.644;8.494;2024-02-23T12:48:28;98167.09;;;14.08;49.35
16355;BME280;8287;51.644;8.494;2024-02-23T12:50:55;98173.53;;;13.86;51.31
16355;BME280;8287;51.644;8.494;2024-02-23T12:53:32;98170.91;;;13.96;50.63
16355;BME280;8287;51.644;8.494;2024-02-23T12:56:02;98167.09;;;13.90;51.17
16355;BME280;8287;51.644;8.494;2024-02-23T12:58:28;98184.66;;;14.33;51.32
16355;BME280;8287;51.644;8.494;2024-02-23T13:00:56;98169.06;;;14.53;52.49
16355;BME280;8287;51.644;8.494;2024-02-23T13:03:23;98174.38;;;14.46;49.63
16355;BME280;8287;51.644;8.494;2024-02-23T13:05:50;98169.06;;;14.63;51.78
16355;BME280;8287;51.644;8.494;2024-02-23T13:08:17;98164.06;;;14.83;49.83
16355;BME280;8287;51.644;8.494;2024-02-23T13:10:43;98157.63;;;14.80;50.95
16355;BME280;8287;51.644;8.494;2024-02-23T13:13:11;98164.81;;;14.97;49.49
16355;BME280;8287;51.644;8.494;2024-02-23T13:15:40;98155.31;;;14.75;49.11
16355;BME280;8287;51.644;8.494;2024-02-23T13:18:06;98156.88;;;14.48;49.41